sensor_id;sensor_type;location;lat;lon;timestamp;P1;durP1;ratioP1;P2;durP2;ratioP2
12567;SDS011;6349;50.904;6.136;2023-03-13T00:00:46;8.83;;;2.97;;
12567;SDS011;6349;50.904;6.136;2023-03-13T00:02:48;11.17;;;3.07;;
12567;SDS011;6349;50.904;6.136;2023-03-13T00:04:50;8.73;;;2.60;;
12567;SDS011;6349;50.904;6.136;2023-03-13T00:06:52;7.63;;;2.30;;
12567;SDS011;6349;50.904;6.136;2023-03-13T00:08:53;10.37;;;2.73;;
12567;SDS011;6349;50.904;6.136;2023-03-13T00:10:55;10.37;;;2.80;;
12567;SDS011;6349;50.904;6.136;2023-03-13T00:12:57;9.50;;;2.87;;
12567;SDS011;6349;50.904;6.136;2023-03-13T00:14:59;8.43;;;2.43;;
12567;SDS011;6349;50.904;6.136;2023-03-13T00:17:00;7.93;;;2.40;;
12567;SDS011;6349;50.904;6.136;2023-03-13T00:19:03;5.40;;;2.30;;
12567;SDS011;6349;50.904;6.136;2023-03-13T00:21:07;9.17;;;2.50;;
12567;SDS011;6349;50.904;6.136;2023-03-13T00:23:09;8.90;;;2.43;;
12567;SDS011;6349;50.904;6.136;2023-03-13T00:25:11;12.67;;;3.07;;
12567;SDS011;6349;50.904;6.136;2023-03-13T00:27:13;6.07;;;2.40;;
12567;SDS011;6349;50.904;6.136;2023-03-13T00:29:14;7.23;;;2.17;;
12567;SDS011;6349;50.904;6.136;2023-03-13T00:31:17;8.00;;;2.33;;
12567;SDS011;6349;50.904;6.136;2023-03-13T00:33:32;8.13;;;2.40;;
12567;SDS011;6349;50.904;6.136;2023-03-13T00:35:35;7.87;;;2.50;;
12567;SDS011;6349;50.904;6.136;2023-03-13T00:37:41;6.93;;;2.37;;
12567;SDS011;6349;50.904;6.136;2023-03-13T00:39:42;6.97;;;2.27;;
12567;SDS011;6349;50.904;6.136;2023-03-13T00:41:45;6.83;;;2.53;;
12567;SDS011;6349;50.904;6.136;2023-03-13T00:43:50;8.67;;;2.20;;
12567;SDS011;6349;50.904;6.136;2023-03-13T00:45:51;8.13;;;2.47;;
12567;SDS011;6349;50.904;6.136;2023-03-13T00:47:56;6.53;;;2.53;;
12567;SDS011;6349;50.904;6.136;2023-03-13T00:49:58;5.90;;;2.37;;
12567;SDS011;6349;50.904;6.136;2023-03-13T00:51:59;6.57;;;2.30;;
12567;SDS011;6349;50.904;6.136;2023-03-13T00:54:01;6.33;;;1.93;;
12567;SDS011;6349;50.904;6.136;2023-03-13T00:56:06;8.23;;;2.27;;
12567;SDS011;6349;50.904;6.136;2023-03-13T00:58:09;7.63;;;2.33;;
12567;SDS011;6349;50.904;6.136;2023-03-13T01:00:11;9.33;;;2.47;;
12567;SDS011;6349;50.904;6.136;2023-03-13T01:02:16;5.77;;;2.00;;
12567;SDS011;6349;50.904;6.136;2023-03-13T01:04:17;6.70;;;2.13;;
12567;SDS011;6349;50.904;6.136;2023-03-13T01:06:21;7.27;;;2.30;;
12567;SDS011;6349;50.904;6.136;2023-03-13T01:08:24;5.87;;;1.70;;
12567;SDS011;6349;50.904;6.136;2023-03-13T01:10:24;5.17;;;2.03;;
12567;SDS011;6349;50.904;6.136;2023-03-13T01:12:26;6.83;;;1.80;;
12567;SDS011;6349;50.904;6.136;2023-03-13T01:14:28;5.17;;;1.87;;
12567;SDS011;6349;50.904;6.136;2023-03-13T01:16:30;7.03;;;2.13;;
12567;SDS011;6349;50.904;6.136;2023-03-13T01:18:34;4.97;;;2.10;;
12567;SDS011;6349;50.904;6.136;2023-03-13T01:20:37;7.60;;;1.93;;
12567;SDS011;6349;50.904;6.136;2023-03-13T01:22:40;6.63;;;1.90;;
12567;SDS011;6349;50.904;6.136;2023-03-13T01:24:42;5.90;;;2.00;;
12567;SDS011;6349;50.904;6.136;2023-03-13T01:26:44;2.60;;;1.40;;
12567;SDS011;6349;50.904;6.136;2023-03-13T01:28:45;6.73;;;2.00;;
12567;SDS011;6349;50.904;6.136;2023-03-13T01:30:48;5.23;;;1.67;;
12567;SDS011;6349;50.904;6.136;2023-03-13T01:32:51;4.97;;;1.70;;
12567;SDS011;6349;50.904;6.136;2023-03-13T01:34:53;3.30;;;1.60;;
12567;SDS011;6349;50.904;6.136;2023-03-13T01:37:00;6.13;;;1.60;;
12567;SDS011;6349;50.904;6.136;2023-03-13T01:39:00;4.03;;;1.60;;
12567;SDS011;6349;50.904;6.136;2023-03-13T01:41:02;4.37;;;1.70;;
12567;SDS011;6349;50.904;6.136;2023-03-13T01:43:22;6.17;;;1.90;;
12567;SDS011;6349;50.904;6.136;2023-03-13T01:48:06;3.13;;;1.20;;
12567;SDS011;6349;50.904;6.136;2023-03-13T01:50:07;4.63;;;1.47;;
12567;SDS011;6349;50.904;6.136;2023-03-13T01:52:12;2.50;;;1.10;;
12567;SDS011;6349;50.904;6.136;2023-03-13T01:54:22;1.87;;;1.20;;
12567;SDS011;6349;50.904;6.136;2023-03-13T01:56:33;3.63;;;1.10;;
12567;SDS011;6349;50.904;6.136;2023-03-13T01:58:41;1.97;;;1.03;;
12567;SDS011;6349;50.904;6.136;2023-03-13T02:00:43;1.50;;;1.00;;
12567;SDS011;6349;50.904;6.136;2023-03-13T02:02:46;2.20;;;1.20;;
12567;SDS011;6349;50.904;6.136;2023-03-13T02:04:53;1.97;;;0.83;;
12567;SDS011;6349;50.904;6.136;2023-03-13T02:06:59;3.83;;;1.00;;
12567;SDS011;6349;50.904;6.136;2023-03-13T02:09:06;1.30;;;0.70;;
12567;SDS011;6349;50.904;6.136;2023-03-13T02:11:15;1.77;;;0.87;;
12567;SDS011;6349;50.904;6.136;2023-03-13T02:13:25;2.17;;;0.80;;
12567;SDS011;6349;50.904;6.136;2023-03-13T02:15:27;1.63;;;0.60;;
12567;SDS011;6349;50.904;6.136;2023-03-13T02:17:31;1.73;;;0.80;;
12567;SDS011;6349;50.904;6.136;2023-03-13T02:19:44;0.60;;;0.60;;
12567;SDS011;6349;50.904;6.136;2023-03-13T02:21:49;1.37;;;0.80;;
12567;SDS011;6349;50.904;6.136;2023-03-13T02:23:58;0.83;;;0.60;;
12567;SDS011;6349;50.904;6.136;2023-03-13T02:26:11;0.70;;;0.60;;
12567;SDS011;6349;50.904;6.136;2023-03-13T02:28:16;0.87;;;0.60;;
12567;SDS011;6349;50.904;6.136;2023-03-13T02:30:25;0.67;;;0.60;;
12567;SDS011;6349;50.904;6.136;2023-03-13T02:32:27;1.13;;;0.73;;
12567;SDS011;6349;50.904;6.136;2023-03-13T02:34:31;0.70;;;0.40;;
12567;SDS011;6349;50.904;6.136;2023-03-13T02:36:35;0.73;;;0.70;;
12567;SDS011;6349;50.904;6.136;2023-03-13T02:38:38;0.60;;;0.60;;
12567;SDS011;6349;50.904;6.136;2023-03-13T02:40:48;2.37;;;0.90;;
12567;SDS011;6349;50.904;6.136;2023-03-13T02:42:54;1.00;;;0.73;;
12567;SDS011;6349;50.904;6.136;2023-03-13T02:44:57;0.87;;;0.77;;
12567;SDS011;6349;50.904;6.136;2023-03-13T02:46:59;1.07;;;0.77;;
12567;SDS011;6349;50.904;6.136;2023-03-13T02:49:09;1.20;;;0.83;;
12567;SDS011;6349;50.904;6.136;2023-03-13T02:51:28;0.80;;;0.73;;
12567;SDS011;6349;50.904;6.136;2023-03-13T02:53:33;2.00;;;0.90;;
12567;SDS011;6349;50.904;6.136;2023-03-13T02:55:38;1.53;;;1.10;;
12567;SDS011;6349;50.904;6.136;2023-03-13T02:57:40;1.13;;;0.90;;
12567;SDS011;6349;50.904;6.136;2023-03-13T02:59:42;1.50;;;0.90;;
12567;SDS011;6349;50.904;6.136;2023-03-13T03:01:49;0.90;;;0.90;;
12567;SDS011;6349;50.904;6.136;2023-03-13T03:03:52;1.20;;;0.83;;
12567;SDS011;6349;50.904;6.136;2023-03-13T03:05:54;1.83;;;0.80;;
12567;SDS011;6349;50.904;6.136;2023-03-13T03:07:56;1.00;;;0.90;;
12567;SDS011;6349;50.904;6.136;2023-03-13T03:09:57;1.17;;;1.07;;
12567;SDS011;6349;50.904;6.136;2023-03-13T03:11:59;1.33;;;1.03;;
12567;SDS011;6349;50.904;6.136;2023-03-13T03:14:02;1.00;;;1.00;;
12567;SDS011;6349;50.904;6.136;2023-03-13T03:16:05;0.87;;;0.87;;
12567;SDS011;6349;50.904;6.136;2023-03-13T03:18:08;1.17;;;1.07;;
12567;SDS011;6349;50.904;6.136;2023-03-13T03:20:10;1.13;;;1.00;;
12567;SDS011;6349;50.904;6.136;2023-03-13T03:22:11;1.20;;;1.07;;
12567;SDS011;6349;50.904;6.136;2023-03-13T03:24:13;2.10;;;1.23;;
12567;SDS011;6349;50.904;6.136;2023-03-13T03:26:18;1.17;;;1.10;;
12567;SDS011;6349;50.904;6.136;2023-03-13T03:28:19;1.63;;;1.20;;
12567;SDS011;6349;50.904;6.136;2023-03-13T03:30:21;1.23;;;1.00;;
12567;SDS011;6349;50.904;6.136;2023-03-13T03:32:23;1.30;;;0.93;;
12567;SDS011;6349;50.904;6.136;2023-03-13T03:34:24;1.07;;;0.90;;
12567;SDS011;6349;50.904;6.136;2023-03-13T03:36:26;1.00;;;1.00;;
12567;SDS011;6349;50.904;6.136;2023-03-13T03:38:28;0.93;;;0.93;;
12567;SDS011;6349;50.904;6.136;2023-03-13T03:40:32;2.43;;;1.00;;
12567;SDS011;6349;50.904;6.136;2023-03-13T03:42:34;1.17;;;0.80;;
12567;SDS011;6349;50.904;6.136;2023-03-13T03:44:35;1.60;;;1.10;;
12567;SDS011;6349;50.904;6.136;2023-03-13T03:46:36;0.90;;;0.90;;
12567;SDS011;6349;50.904;6.136;2023-03-13T03:48:38;0.97;;;0.87;;
12567;SDS011;6349;50.904;6.136;2023-03-13T03:50:40;1.07;;;0.90;;
12567;SDS011;6349;50.904;6.136;2023-03-13T03:52:44;1.10;;;0.80;;
12567;SDS011;6349;50.904;6.136;2023-03-13T03:54:48;1.23;;;1.10;;
12567;SDS011;6349;50.904;6.136;2023-03-13T03:56:51;0.70;;;0.70;;
12567;SDS011;6349;50.904;6.136;2023-03-13T03:58:52;1.03;;;0.90;;
12567;SDS011;6349;50.904;6.136;2023-03-13T04:00:55;1.47;;;0.80;;
12567;SDS011;6349;50.904;6.136;2023-03-13T04:02:58;1.37;;;0.80;;
12567;SDS011;6349;50.904;6.136;2023-03-13T04:04:59;1.50;;;0.70;;
12567;SDS011;6349;50.904;6.136;2023-03-13T04:07:01;1.17;;;0.80;;
12567;SDS011;6349;50.904;6.136;2023-03-13T04:09:03;0.63;;;0.63;;
12567;SDS011;6349;50.904;6.136;2023-03-13T04:11:04;1.40;;;1.10;;
12567;SDS011;6349;50.904;6.136;2023-03-13T04:13:13;0.90;;;0.90;;
12567;SDS011;6349;50.904;6.136;2023-03-13T04:15:15;0.80;;;0.80;;
12567;SDS011;6349;50.904;6.136;2023-03-13T04:17:16;1.07;;;1.00;;
12567;SDS011;6349;50.904;6.136;2023-03-13T04:19:18;0.97;;;0.87;;
12567;SDS011;6349;50.904;6.136;2023-03-13T04:21:20;1.33;;;1.00;;
12567;SDS011;6349;50.904;6.136;2023-03-13T04:23:21;1.30;;;1.10;;
12567;SDS011;6349;50.904;6.136;2023-03-13T04:25:23;1.47;;;1.00;;
12567;SDS011;6349;50.904;6.136;2023-03-13T04:27:25;1.03;;;0.93;;
12567;SDS011;6349;50.904;6.136;2023-03-13T04:29:26;1.20;;;1.10;;
12567;SDS011;6349;50.904;6.136;2023-03-13T04:31:28;1.80;;;1.30;;
12567;SDS011;6349;50.904;6.136;2023-03-13T04:33:30;1.43;;;1.30;;
12567;SDS011;6349;50.904;6.136;2023-03-13T04:35:31;1.00;;;1.00;;
12567;SDS011;6349;50.904;6.136;2023-03-13T04:37:32;1.40;;;1.27;;
12567;SDS011;6349;50.904;6.136;2023-03-13T04:39:34;1.30;;;1.20;;
12567;SDS011;6349;50.904;6.136;2023-03-13T04:41:37;1.43;;;1.10;;
12567;SDS011;6349;50.904;6.136;2023-03-13T04:43:39;1.40;;;1.23;;
12567;SDS011;6349;50.904;6.136;2023-03-13T04:45:40;1.30;;;1.20;;
12567;SDS011;6349;50.904;6.136;2023-03-13T04:47:42;1.30;;;1.20;;
12567;SDS011;6349;50.904;6.136;2023-03-13T04:49:44;2.53;;;1.40;;
12567;SDS011;6349;50.904;6.136;2023-03-13T04:51:45;2.40;;;1.40;;
12567;SDS011;6349;50.904;6.136;2023-03-13T04:53:52;1.00;;;1.00;;
12567;SDS011;6349;50.904;6.136;2023-03-13T04:55:54;1.43;;;1.23;;
12567;SDS011;6349;50.904;6.136;2023-03-13T04:57:56;1.57;;;1.30;;
12567;SDS011;6349;50.904;6.136;2023-03-13T04:59:58;3.97;;;1.60;;
12567;SDS011;6349;50.904;6.136;2023-03-13T05:02:00;1.47;;;1.30;;
12567;SDS011;6349;50.904;6.136;2023-03-13T05:04:01;1.53;;;1.33;;
12567;SDS011;6349;50.904;6.136;2023-03-13T05:06:03;1.63;;;1.30;;
12567;SDS011;6349;50.904;6.136;2023-03-13T05:08:05;1.97;;;1.57;;
12567;SDS011;6349;50.904;6.136;2023-03-13T05:10:07;2.03;;;1.40;;
12567;SDS011;6349;50.904;6.136;2023-03-13T05:12:10;2.53;;;1.20;;
12567;SDS011;6349;50.904;6.136;2023-03-13T05:14:11;2.47;;;1.40;;
12567;SDS011;6349;50.904;6.136;2023-03-13T05:16:12;1.57;;;1.23;;
12567;SDS011;6349;50.904;6.136;2023-03-13T05:18:14;1.27;;;1.17;;
12567;SDS011;6349;50.904;6.136;2023-03-13T05:20:16;2.30;;;1.40;;
12567;SDS011;6349;50.904;6.136;2023-03-13T05:22:17;1.40;;;1.13;;
12567;SDS011;6349;50.904;6.136;2023-03-13T05:24:19;2.17;;;1.30;;
12567;SDS011;6349;50.904;6.136;2023-03-13T05:26:24;1.30;;;1.20;;
12567;SDS011;6349;50.904;6.136;2023-03-13T05:28:25;2.40;;;1.50;;
12567;SDS011;6349;50.904;6.136;2023-03-13T05:30:27;1.60;;;1.20;;
12567;SDS011;6349;50.904;6.136;2023-03-13T05:32:29;1.60;;;1.17;;
12567;SDS011;6349;50.904;6.136;2023-03-13T05:34:30;1.30;;;1.20;;
12567;SDS011;6349;50.904;6.136;2023-03-13T05:36:32;2.30;;;1.27;;
12567;SDS011;6349;50.904;6.136;2023-03-13T05:38:34;1.53;;;1.27;;
12567;SDS011;6349;50.904;6.136;2023-03-13T05:40:35;1.43;;;1.00;;
12567;SDS011;6349;50.904;6.136;2023-03-13T05:42:39;2.50;;;1.30;;
12567;SDS011;6349;50.904;6.136;2023-03-13T05:44:41;1.33;;;1.10;;
12567;SDS011;6349;50.904;6.136;2023-03-13T05:46:43;1.30;;;1.20;;
12567;SDS011;6349;50.904;6.136;2023-03-13T05:48:45;1.40;;;1.30;;
12567;SDS011;6349;50.904;6.136;2023-03-13T05:50:49;1.50;;;1.20;;
12567;SDS011;6349;50.904;6.136;2023-03-13T05:52:51;1.43;;;1.20;;
12567;SDS011;6349;50.904;6.136;2023-03-13T05:54:53;1.53;;;1.40;;
12567;SDS011;6349;50.904;6.136;2023-03-13T05:56:53;1.70;;;1.40;;
12567;SDS011;6349;50.904;6.136;2023-03-13T05:58:55;1.30;;;1.20;;
12567;SDS011;6349;50.904;6.136;2023-03-13T06:00:57;1.47;;;1.20;;
12567;SDS011;6349;50.904;6.136;2023-03-13T06:02:58;2.67;;;1.40;;
12567;SDS011;6349;50.904;6.136;2023-03-13T06:05:00;1.83;;;1.20;;
12567;SDS011;6349;50.904;6.136;2023-03-13T06:07:06;1.83;;;1.40;;
12567;SDS011;6349;50.904;6.136;2023-03-13T06:09:08;2.33;;;1.50;;
12567;SDS011;6349;50.904;6.136;2023-03-13T06:11:11;1.73;;;1.33;;
12567;SDS011;6349;50.904;6.136;2023-03-13T06:13:13;1.50;;;1.40;;
12567;SDS011;6349;50.904;6.136;2023-03-13T06:15:17;2.57;;;1.20;;
12567;SDS011;6349;50.904;6.136;2023-03-13T06:17:19;3.30;;;1.27;;
12567;SDS011;6349;50.904;6.136;2023-03-13T06:19:21;2.47;;;1.70;;
12567;SDS011;6349;50.904;6.136;2023-03-13T06:21:23;1.67;;;1.33;;
12567;SDS011;6349;50.904;6.136;2023-03-13T06:23:25;3.00;;;1.60;;
12567;SDS011;6349;50.904;6.136;2023-03-13T06:25:27;1.80;;;1.60;;
12567;SDS011;6349;50.904;6.136;2023-03-13T06:27:28;2.20;;;1.47;;
12567;SDS011;6349;50.904;6.136;2023-03-13T06:29:31;2.73;;;1.40;;
12567;SDS011;6349;50.904;6.136;2023-03-13T06:31:33;2.37;;;1.70;;
12567;SDS011;6349;50.904;6.136;2023-03-13T06:33:34;2.17;;;1.50;;
12567;SDS011;6349;50.904;6.136;2023-03-13T06:35:38;3.03;;;1.70;;
12567;SDS011;6349;50.904;6.136;2023-03-13T06:37:41;3.17;;;1.80;;
12567;SDS011;6349;50.904;6.136;2023-03-13T06:39:42;2.60;;;1.80;;
12567;SDS011;6349;50.904;6.136;2023-03-13T06:41:44;1.90;;;1.60;;
12567;SDS011;6349;50.904;6.136;2023-03-13T06:43:46;4.23;;;1.90;;
12567;SDS011;6349;50.904;6.136;2023-03-13T06:45:47;3.83;;;1.60;;
12567;SDS011;6349;50.904;6.136;2023-03-13T06:47:50;2.90;;;1.90;;
12567;SDS011;6349;50.904;6.136;2023-03-13T06:49:52;2.73;;;1.63;;
12567;SDS011;6349;50.904;6.136;2023-03-13T06:51:53;5.53;;;1.80;;
12567;SDS011;6349;50.904;6.136;2023-03-13T06:54:00;2.73;;;2.00;;
12567;SDS011;6349;50.904;6.136;2023-03-13T06:56:02;2.33;;;1.90;;
12567;SDS011;6349;50.904;6.136;2023-03-13T06:58:03;2.90;;;1.80;;
12567;SDS011;6349;50.904;6.136;2023-03-13T07:00:04;5.17;;;2.10;;
12567;SDS011;6349;50.904;6.136;2023-03-13T07:02:10;3.47;;;1.70;;
12567;SDS011;6349;50.904;6.136;2023-03-13T07:04:12;3.53;;;1.80;;
12567;SDS011;6349;50.904;6.136;2023-03-13T07:06:15;3.03;;;1.97;;
12567;SDS011;6349;50.904;6.136;2023-03-13T07:08:17;4.23;;;1.83;;
12567;SDS011;6349;50.904;6.136;2023-03-13T07:10:18;2.50;;;1.80;;
12567;SDS011;6349;50.904;6.136;2023-03-13T07:12:19;3.27;;;1.67;;
12567;SDS011;6349;50.904;6.136;2023-03-13T07:14:22;4.23;;;1.60;;
12567;SDS011;6349;50.904;6.136;2023-03-13T07:16:26;2.73;;;1.83;;
12567;SDS011;6349;50.904;6.136;2023-03-13T07:18:27;4.57;;;2.00;;
12567;SDS011;6349;50.904;6.136;2023-03-13T07:20:33;5.10;;;2.00;;
12567;SDS011;6349;50.904;6.136;2023-03-13T07:22:36;3.57;;;1.80;;
12567;SDS011;6349;50.904;6.136;2023-03-13T07:24:37;4.40;;;2.10;;
12567;SDS011;6349;50.904;6.136;2023-03-13T07:26:39;5.13;;;2.13;;
12567;SDS011;6349;50.904;6.136;2023-03-13T07:28:41;4.93;;;2.10;;
12567;SDS011;6349;50.904;6.136;2023-03-13T07:30:45;3.10;;;1.80;;
12567;SDS011;6349;50.904;6.136;2023-03-13T07:32:50;3.37;;;1.80;;
12567;SDS011;6349;50.904;6.136;2023-03-13T07:34:52;3.13;;;1.90;;
12567;SDS011;6349;50.904;6.136;2023-03-13T07:36:53;4.73;;;2.07;;
12567;SDS011;6349;50.904;6.136;2023-03-13T07:38:55;5.27;;;2.10;;
12567;SDS011;6349;50.904;6.136;2023-03-13T07:40:57;3.80;;;2.17;;
12567;SDS011;6349;50.904;6.136;2023-03-13T07:42:58;3.03;;;1.97;;
12567;SDS011;6349;50.904;6.136;2023-03-13T07:45:00;4.17;;;1.97;;
12567;SDS011;6349;50.904;6.136;2023-03-13T07:47:02;6.20;;;2.07;;
12567;SDS011;6349;50.904;6.136;2023-03-13T07:49:03;4.50;;;2.00;;
12567;SDS011;6349;50.904;6.136;2023-03-13T07:51:06;3.83;;;2.00;;
12567;SDS011;6349;50.904;6.136;2023-03-13T07:53:11;5.30;;;2.10;;
12567;SDS011;6349;50.904;6.136;2023-03-13T07:55:14;3.87;;;2.00;;
12567;SDS011;6349;50.904;6.136;2023-03-13T07:57:15;4.13;;;1.90;;
12567;SDS011;6349;50.904;6.136;2023-03-13T07:59:16;6.00;;;2.25;;
12567;SDS011;6349;50.904;6.136;2023-03-13T08:01:19;4.13;;;2.00;;
12567;SDS011;6349;50.904;6.136;2023-03-13T08:03:24;3.37;;;1.93;;
12567;SDS011;6349;50.904;6.136;2023-03-13T08:05:26;3.43;;;2.43;;
12567;SDS011;6349;50.904;6.136;2023-03-13T08:07:27;4.80;;;2.03;;
12567;SDS011;6349;50.904;6.136;2023-03-13T08:09:31;4.53;;;1.90;;
12567;SDS011;6349;50.904;6.136;2023-03-13T08:11:33;4.87;;;2.20;;
12567;SDS011;6349;50.904;6.136;2023-03-13T08:13:35;4.03;;;2.20;;
12567;SDS011;6349;50.904;6.136;2023-03-13T08:15:38;7.40;;;2.23;;
12567;SDS011;6349;50.904;6.136;2023-03-13T08:17:39;3.20;;;1.83;;
12567;SDS011;6349;50.904;6.136;2023-03-13T08:19:40;5.70;;;2.37;;
12567;SDS011;6349;50.904;6.136;2023-03-13T08:21:42;2.50;;;2.10;;
12567;SDS011;6349;50.904;6.136;2023-03-13T08:23:44;4.97;;;2.17;;
12567;SDS011;6349;50.904;6.136;2023-03-13T08:25:45;3.80;;;2.20;;
12567;SDS011;6349;50.904;6.136;2023-03-13T08:27:46;6.20;;;2.30;;
12567;SDS011;6349;50.904;6.136;2023-03-13T08:29:46;5.50;;;2.30;;
12567;SDS011;6349;50.904;6.136;2023-03-13T08:31:47;5.87;;;2.40;;
12567;SDS011;6349;50.904;6.136;2023-03-13T08:34:37;3.27;;;2.30;;
12567;SDS011;6349;50.904;6.136;2023-03-13T08:36:34;4.80;;;2.30;;
12567;SDS011;6349;50.904;6.136;2023-03-13T08:38:36;5.10;;;2.70;;
12567;SDS011;6349;50.904;6.136;2023-03-13T08:41:07;6.00;;;2.38;;
12567;SDS011;6349;50.904;6.136;2023-03-13T08:43:08;2.53;;;2.13;;
12567;SDS011;6349;50.904;6.136;2023-03-13T08:45:09;5.17;;;2.20;;
12567;SDS011;6349;50.904;6.136;2023-03-13T08:47:10;5.53;;;2.30;;
12567;SDS011;6349;50.904;6.136;2023-03-13T08:49:11;2.97;;;2.00;;
12567;SDS011;6349;50.904;6.136;2023-03-13T08:51:13;6.22;;;2.13;;
12567;SDS011;6349;50.904;6.136;2023-03-13T08:53:14;3.50;;;2.20;;
12567;SDS011;6349;50.904;6.136;2023-03-13T08:55:15;3.37;;;2.40;;
12567;SDS011;6349;50.904;6.136;2023-03-13T08:57:16;4.73;;;2.57;;
12567;SDS011;6349;50.904;6.136;2023-03-13T08:59:16;4.68;;;1.77;;
12567;SDS011;6349;50.904;6.136;2023-03-13T09:01:17;2.67;;;2.00;;
12567;SDS011;6349;50.904;6.136;2023-03-13T09:03:19;4.97;;;2.20;;
12567;SDS011;6349;50.904;6.136;2023-03-13T09:05:20;3.80;;;2.20;;
12567;SDS011;6349;50.904;6.136;2023-03-13T09:07:20;4.38;;;2.40;;
12567;SDS011;6349;50.904;6.136;2023-03-13T09:09:23;2.80;;;2.20;;
12567;SDS011;6349;50.904;6.136;2023-03-13T09:11:25;3.70;;;2.20;;
12567;SDS011;6349;50.904;6.136;2023-03-13T09:13:30;4.63;;;2.28;;
12567;SDS011;6349;50.904;6.136;2023-03-13T09:15:32;3.20;;;2.10;;
12567;SDS011;6349;50.904;6.136;2023-03-13T09:17:33;3.72;;;2.10;;
12567;SDS011;6349;50.904;6.136;2023-03-13T09:19:34;2.47;;;1.77;;
12567;SDS011;6349;50.904;6.136;2023-03-13T09:21:34;2.42;;;2.00;;
12567;SDS011;6349;50.904;6.136;2023-03-13T09:23:35;2.75;;;1.90;;
12567;SDS011;6349;50.904;6.136;2023-03-13T09:25:37;5.28;;;1.95;;
12567;SDS011;6349;50.904;6.136;2023-03-13T09:27:38;6.38;;;2.10;;
12567;SDS011;6349;50.904;6.136;2023-03-13T09:29:39;3.50;;;1.80;;
12567;SDS011;6349;50.904;6.136;2023-03-13T09:31:41;3.00;;;1.80;;
12567;SDS011;6349;50.904;6.136;2023-03-13T09:33:42;2.95;;;1.85;;
12567;SDS011;6349;50.904;6.136;2023-03-13T09:35:44;3.40;;;1.52;;
12567;SDS011;6349;50.904;6.136;2023-03-13T09:37:49;3.33;;;2.08;;
12567;SDS011;6349;50.904;6.136;2023-03-13T09:39:50;3.28;;;1.80;;
12567;SDS011;6349;50.904;6.136;2023-03-13T09:41:53;1.92;;;1.50;;
12567;SDS011;6349;50.904;6.136;2023-03-13T09:44:38;4.47;;;1.70;;
12567;SDS011;6349;50.904;6.136;2023-03-13T09:47:00;2.75;;;1.60;;
12567;SDS011;6349;50.904;6.136;2023-03-13T09:49:11;2.83;;;1.70;;
12567;SDS011;6349;50.904;6.136;2023-03-13T09:51:28;4.53;;;1.77;;
12567;SDS011;6349;50.904;6.136;2023-03-13T09:53:38;3.58;;;1.85;;
12567;SDS011;6349;50.904;6.136;2023-03-13T09:55:46;2.70;;;1.80;;
12567;SDS011;6349;50.904;6.136;2023-03-13T09:57:54;1.88;;;1.48;;
12567;SDS011;6349;50.904;6.136;2023-03-13T10:00:04;2.08;;;1.50;;
12567;SDS011;6349;50.904;6.136;2023-03-13T10:02:24;3.20;;;1.80;;
12567;SDS011;6349;50.904;6.136;2023-03-13T10:04:34;2.72;;;1.88;;
12567;SDS011;6349;50.904;6.136;2023-03-13T10:07:11;4.00;;;1.70;;
12567;SDS011;6349;50.904;6.136;2023-03-13T10:12:39;3.47;;;1.80;;
12567;SDS011;6349;50.904;6.136;2023-03-13T10:17:30;3.80;;;1.83;;
12567;SDS011;6349;50.904;6.136;2023-03-13T10:19:36;2.80;;;1.70;;
12567;SDS011;6349;50.904;6.136;2023-03-13T10:21:41;2.88;;;1.48;;
12567;SDS011;6349;50.904;6.136;2023-03-13T10:23:48;3.40;;;1.60;;
12567;SDS011;6349;50.904;6.136;2023-03-13T10:25:53;2.25;;;1.35;;
12567;SDS011;6349;50.904;6.136;2023-03-13T10:27:54;1.83;;;1.42;;
12567;SDS011;6349;50.904;6.136;2023-03-13T10:29:58;5.65;;;1.67;;
12567;SDS011;6349;50.904;6.136;2023-03-13T10:32:02;1.88;;;1.23;;
12567;SDS011;6349;50.904;6.136;2023-03-13T10:34:06;2.65;;;1.70;;
12567;SDS011;6349;50.904;6.136;2023-03-13T10:36:11;1.45;;;1.20;;
12567;SDS011;6349;50.904;6.136;2023-03-13T10:38:18;2.22;;;1.30;;
12567;SDS011;6349;50.904;6.136;2023-03-13T10:40:21;4.00;;;1.30;;
12567;SDS011;6349;50.904;6.136;2023-03-13T10:42:30;2.42;;;1.23;;
12567;SDS011;6349;50.904;6.136;2023-03-13T10:44:34;2.80;;;1.40;;
12567;SDS011;6349;50.904;6.136;2023-03-13T10:46:39;1.52;;;1.30;;
12567;SDS011;6349;50.904;6.136;2023-03-13T10:48:42;1.98;;;1.40;;
12567;SDS011;6349;50.904;6.136;2023-03-13T10:50:45;1.65;;;1.40;;
12567;SDS011;6349;50.904;6.136;2023-03-13T10:52:48;1.63;;;1.40;;
12567;SDS011;6349;50.904;6.136;2023-03-13T10:54:49;1.70;;;1.60;;
12567;SDS011;6349;50.904;6.136;2023-03-13T10:57:28;1.75;;;1.52;;
12567;SDS011;6349;50.904;6.136;2023-03-13T10:59:28;2.72;;;1.30;;
12567;SDS011;6349;50.904;6.136;2023-03-13T11:01:39;2.00;;;1.35;;
12567;SDS011;6349;50.904;6.136;2023-03-13T11:03:41;2.50;;;1.30;;
12567;SDS011;6349;50.904;6.136;2023-03-13T11:05:43;1.48;;;1.17;;
12567;SDS011;6349;50.904;6.136;2023-03-13T11:07:58;1.65;;;1.30;;
12567;SDS011;6349;50.904;6.136;2023-03-13T11:10:20;1.85;;;1.27;;
12567;SDS011;6349;50.904;6.136;2023-03-13T11:12:24;1.45;;;1.13;;
12567;SDS011;6349;50.904;6.136;2023-03-13T11:14:26;1.70;;;1.25;;
12567;SDS011;6349;50.904;6.136;2023-03-13T11:16:28;1.33;;;1.10;;
12567;SDS011;6349;50.904;6.136;2023-03-13T11:18:32;2.70;;;1.20;;
12567;SDS011;6349;50.904;6.136;2023-03-13T11:20:43;2.03;;;1.35;;
12567;SDS011;6349;50.904;6.136;2023-03-13T11:22:48;1.38;;;1.20;;
12567;SDS011;6349;50.904;6.136;2023-03-13T11:30:44;1.67;;;1.10;;
12567;SDS011;6349;50.904;6.136;2023-03-13T11:33:09;1.63;;;1.20;;
12567;SDS011;6349;50.904;6.136;2023-03-13T11:35:56;1.50;;;1.30;;
12567;SDS011;6349;50.904;6.136;2023-03-13T11:37:46;1.30;;;1.10;;
12567;SDS011;6349;50.904;6.136;2023-03-13T11:45:07;1.70;;;1.30;;
12567;SDS011;6349;50.904;6.136;2023-03-13T11:47:40;2.42;;;1.08;;
12567;SDS011;6349;50.904;6.136;2023-03-13T11:55:24;1.17;;;1.05;;
12567;SDS011;6349;50.904;6.136;2023-03-13T12:00:15;1.10;;;1.00;;
12567;SDS011;6349;50.904;6.136;2023-03-13T12:02:28;1.85;;;1.30;;
12567;SDS011;6349;50.904;6.136;2023-03-13T12:04:40;1.05;;;1.00;;
12567;SDS011;6349;50.904;6.136;2023-03-13T12:06:49;1.10;;;1.00;;
12567;SDS011;6349;50.904;6.136;2023-03-13T12:09:01;1.25;;;0.95;;
12567;SDS011;6349;50.904;6.136;2023-03-13T12:11:25;1.05;;;0.95;;
12567;SDS011;6349;50.904;6.136;2023-03-13T12:13:31;1.13;;;1.00;;
12567;SDS011;6349;50.904;6.136;2023-03-13T12:15:39;1.20;;;1.10;;
12567;SDS011;6349;50.904;6.136;2023-03-13T12:17:50;1.35;;;1.08;;
12567;SDS011;6349;50.904;6.136;2023-03-13T12:20:00;1.60;;;0.80;;
12567;SDS011;6349;50.904;6.136;2023-03-13T12:22:14;1.38;;;0.95;;
12567;SDS011;6349;50.904;6.136;2023-03-13T12:24:28;1.30;;;1.20;;
12567;SDS011;6349;50.904;6.136;2023-03-13T12:36:29;2.30;;;1.10;;
12567;SDS011;6349;50.904;6.136;2023-03-13T12:38:52;1.33;;;1.08;;
12567;SDS011;6349;50.904;6.136;2023-03-13T12:43:20;2.97;;;1.20;;
12567;SDS011;6349;50.904;6.136;2023-03-13T12:45:27;2.15;;;1.02;;
12567;SDS011;6349;50.904;6.136;2023-03-13T12:47:31;1.92;;;1.00;;
12567;SDS011;6349;50.904;6.136;2023-03-13T12:50:07;1.00;;;0.90;;
12567;SDS011;6349;50.904;6.136;2023-03-13T12:52:34;1.90;;;1.40;;
12567;SDS011;6349;50.904;6.136;2023-03-13T12:58:13;1.50;;;1.00;;
12567;SDS011;6349;50.904;6.136;2023-03-13T13:00:22;1.45;;;1.02;;
12567;SDS011;6349;50.904;6.136;2023-03-13T13:02:27;1.90;;;1.20;;
12567;SDS011;6349;50.904;6.136;2023-03-13T13:04:30;2.78;;;1.10;;
12567;SDS011;6349;50.904;6.136;2023-03-13T13:06:51;1.10;;;1.10;;
12567;SDS011;6349;50.904;6.136;2023-03-13T13:09:06;1.90;;;1.20;;
12567;SDS011;6349;50.904;6.136;2023-03-13T13:11:46;2.58;;;1.30;;
12567;SDS011;6349;50.904;6.136;2023-03-13T13:13:49;1.77;;;1.00;;
12567;SDS011;6349;50.904;6.136;2023-03-13T13:16:05;3.50;;;1.30;;
12567;SDS011;6349;50.904;6.136;2023-03-13T13:18:13;1.17;;;1.08;;
12567;SDS011;6349;50.904;6.136;2023-03-13T13:20:34;1.10;;;1.00;;
12567;SDS011;6349;50.904;6.136;2023-03-13T13:24:50;1.13;;;1.02;;
12567;SDS011;6349;50.904;6.136;2023-03-13T13:26:54;0.93;;;0.90;;
12567;SDS011;6349;50.904;6.136;2023-03-13T13:28:56;1.23;;;1.13;;